ADDS TAF Data INFO
IDs: Format: Raw Decoded Include METARs

Data at: 1246 UTC 20 Jan 2018

KPVW 201235Z AUTO 25006KT 10SM CLR M01/M11 A2981 RMK AO2 T10061115

KPVW 201120Z 2012/2112 26015KT P6SM FEW250